Latest Coastal Weather Observations for Port Fairy

IDV60701

Issued at 5:51 am EDT Monday 20 January 2020 (issued every 10 minutes, with the page automatically refreshed every 10 minutes)

About coastal observations | Map of coastal stations | Coastal observations for VIC | Marine services | Other Formats
Station Details ID: 090175 Name: PORT FAIRY AWS Lat: -38.39 Lon: 142.23 Height: 10.0 m
Data from the previous 72 hours. | See also: Recent months at Port Fairy
Date/Time
EDT
Wind Sea
Height
m
Swell Vis
km
Cloud Weather Temp
°C
Press
hPa
Rain since
9am
mm
Dir  Spd
kts
Gust
kts
Height
m
Period
s
Dir
20/05:30am SSE 17 25 - - - - - - - 15.7 1006.9 0.2
20/05:00am SSE 18 24 - - - - - - - 15.7 1006.7 0.0
20/04:30am SSE 17 23 - - - - - - - 15.5 1006.7 0.0
20/04:00am SSE 19 28 - - - - - - - 15.4 1007.0 0.0
20/03:30am SSE 18 24 - - - - - - - 15.6 1007.3 0.0
20/03:00am SSE 20 27 - - - - - - - 15.5 1007.6 0.0
20/02:30am SSE 20 28 - - - - - - - 15.6 1007.8 0.0
20/02:00am SE 20 26 - - - - - - - 15.5 1007.9 0.0
20/01:30am SSE 21 27 - - - - - - - 15.6 1008.0 0.0
20/01:00am SSE 20 28 - - - - - - - 15.7 1007.9 0.0
20/12:30am SSE 20 27 - - - - - - - 15.8 1007.9 0.0
20/12:00am SSE 21 29 - - - - - - - 15.9 1007.8 0.0
 
Date/Time
EDT
Wind Sea
Height
m
Swell Vis
km
Cloud Weather Temp
°C
Press
hPa
Rain since
9am
mm
Dir  Spd
kts
Gust
kts
Height
m
Period
s
Dir
19/11:30pm SSE 19 27 - - - - - - - 15.9 1007.8 0.0
19/11:00pm SSE 18 25 - - - - - - - 15.9 1008.1 0.0
19/10:30pm SSE 19 26 - - - - - - - 16.0 1008.2 0.0
19/10:00pm SSE 19 25 - - - - - - - 15.9 1008.3 0.0
19/09:30pm SE 20 27 - - - - - - - 16.1 1007.8 0.0
19/09:00pm SE 19 26 - - - - - - - 16.1 1008.1 0.0
19/08:30pm SSE 20 27 - - - - - - - 16.2 1007.6 0.0
19/08:00pm SSE 20 27 - - - - - - - 16.3 1007.4 0.0
19/07:30pm SSE 19 23 - - - - - - - 16.4 1006.3 0.0
19/07:00pm SSE 18 23 - - - - - - - 16.6 1006.2 0.0
19/06:30pm SSE 18 26 - - - - - - - 16.8 1006.4 0.0
19/06:00pm SSE 15 20 - - - - - - - 17.1 1006.2 0.0
19/05:30pm SSE 14 20 - - - - - - - 17.4 1006.2 0.0
19/05:00pm SSE 13 17 - - - - - - - 18.0 1005.8 0.0
19/04:30pm SE 12 17 - - - - - - - 18.8 1005.9 0.0
19/04:00pm SSE 12 15 - - - - - - - 17.9 1006.2 0.0
19/03:30pm SSE 13 18 - - - - - - - 17.8 1006.3 0.0
19/03:00pm SE 13 17 - - - - - - - 17.9 1006.3 0.0
19/02:30pm SE 12 15 - - - - - - - 18.4 1006.3 0.0
19/02:00pm SE 10 13 - - - - - - - 18.6 1006.4 0.0
19/01:30pm SE 8 11 - - - - - - - 18.3 1006.8 0.0
19/01:00pm SE 7 9 - - - - - - - 17.9 1006.9 0.0
19/12:30pm SE 7 9 - - - - - - - 17.8 1007.1 0.0
19/12:00pm SE 6 8 - - - - - - - 17.5 1007.0 0.0
19/11:30am SE 6 8 - - - - - - - 17.5 1007.0 0.0
19/11:00am SE 6 8 - - - - - - - 17.3 1007.1 0.0
19/10:30am E 4 7 - - - - - - - 17.6 1007.0 0.0
19/10:00am ESE 5 8 - - - - - - - 17.6 1007.0 0.0
19/09:30am NE 2 4 - - - - - - - 17.1 1007.1 0.0
19/09:00am E 3 5 - - - - - - - 17.5 1006.9 0.0
19/08:30am ESE 6 9 - - - - - - - 16.9 1006.7 0.0
19/08:00am ESE 7 10 - - - - - - - 16.7 1006.7 0.0
19/07:30am ESE 7 10 - - - - - - - 16.7 1006.6 0.0
19/07:00am ESE 7 12 - - - - - - - 16.7 1006.3 0.0
19/06:30am ESE 6 10 - - - - - - - 16.5 1006.1 0.0
19/06:00am ESE 7 9 - - - - - - - 16.4 1005.9 0.0
19/05:30am ESE 6 9 - - - - - - - 16.4 1005.7 0.0
19/05:00am ESE 5 8 - - - - - - - 16.3 1005.7 0.0
19/04:30am ESE 6 8 - - - - - - - 16.3 1005.7 0.0
19/04:00am ESE 5 7 - - - - - - - 16.3 1005.9 0.0
19/03:30am ESE 5 7 - - - - - - - 16.3 1006.1 0.0
19/03:00am SE 6 9 - - - - - - - 16.4 1006.0 0.0
19/02:30am SE 6 9 - - - - - - - 16.5 1006.4 0.0
19/02:00am SE 6 8 - - - - - - - 16.6 1006.8 0.0
19/01:30am ESE 6 8 - - - - - - - 16.5 1006.9 0.0
19/01:00am ESE 5 8 - - - - - - - 16.6 1007.2 0.0
19/12:30am ESE 5 7 - - - - - - - 16.6 1007.4 0.0
19/12:00am SE 5 8 - - - - - - - 16.6 1007.5 0.0
 
Date/Time
EDT
Wind Sea
Height
m
Swell Vis
km
Cloud Weather Temp
°C
Press
hPa
Rain since
9am
mm
Dir  Spd
kts
Gust
kts
Height
m
Period
s
Dir
18/11:30pm SE 7 9 - - - - - - - 16.9 1007.8 0.0
18/11:00pm SE 8 11 - - - - - - - 16.9 1007.8 0.0
18/10:30pm SE 9 12 - - - - - - - 16.7 1007.7 0.0
18/10:00pm SE 9 13 - - - - - - - 16.8 1007.7 0.0
18/09:30pm ESE 11 15 - - - - - - - 16.8 1007.4 0.0
18/09:00pm SE 11 17 - - - - - - - 16.8 1007.3 0.0
18/08:30pm SE 11 17 - - - - - - - 17.1 1007.2 0.0
18/08:00pm SE 12 18 - - - - - - - 17.5 1007.0 0.0
18/07:30pm SE 13 18 - - - - - - - 18.0 1006.9 0.0
18/07:00pm SE 12 18 - - - - - - - 18.5 1006.9 0.0
18/06:30pm SE 13 18 - - - - - - - 19.0 1006.6 0.0
18/06:00pm SE 12 17 - - - - - - - 19.3 1007.0 0.0
18/05:30pm SE 13 20 - - - - - - - 19.4 1007.0 0.0
18/05:00pm SE 13 17 - - - - - - - 19.7 1007.2 0.0
18/04:30pm SE 12 17 - - - - - - - 19.3 1007.5 0.0
18/04:00pm SE 13 18 - - - - - - - 19.1 1007.7 0.0
18/03:30pm SE 13 19 - - - - - - - 19.2 1007.9 0.0
18/03:00pm SE 14 17 - - - - - - - 20.7 1008.0 0.0
18/02:30pm SE 12 16 - - - - - - - 20.7 1008.3 0.0
18/02:00pm SE 12 17 - - - - - - - 21.0 1008.4 0.0
18/01:30pm SE 12 16 - - - - - - - 19.4 1008.9 0.0
18/01:00pm SE 13 17 - - - - - - - 19.5 1009.2 0.0
18/12:30pm SE 12 17 - - - - - - - 20.1 1009.5 0.0
18/12:00pm SE 12 17 - - - - - - - 19.6 1009.8 0.0
18/11:30am ESE 11 16 - - - - - - - 19.3 1010.1 0.0
18/11:00am ESE 10 15 - - - - - - - 18.9 1010.2 0.0
18/10:30am ESE 11 16 - - - - - - - 19.1 1010.5 0.0
18/10:00am ESE 12 17 - - - - - - - 19.0 1010.6 0.0
18/09:30am ESE 13 19 - - - - - - - 17.5 1010.8 0.0
18/09:00am ESE 11 17 - - - - - - - 17.3 1011.2 0.0
18/08:30am ESE 11 15 - - - - - - - 17.0 1011.5 0.0
18/08:00am ESE 11 17 - - - - - - - 16.8 1011.4 0.0
18/07:30am SE 12 17 - - - - - - - 16.6 1010.9 0.0
18/07:00am SE 12 17 - - - - - - - 16.5 1010.9 0.0
18/06:30am SE 13 19 - - - - - - - 16.4 1010.7 0.0
18/06:00am SE 13 18 - - - - - - - 16.4 1010.9 0.0
18/05:30am SE 13 18 - - - - - - - 16.3 1011.0 0.0
18/05:00am SE 14 21 - - - - - - - 16.3 1010.8 0.0
18/04:30am SE 15 20 - - - - - - - 16.3 1011.0 0.0
18/04:00am SE 16 21 - - - - - - - 16.2 1011.1 0.0
18/03:30am SE 14 21 - - - - - - - 16.0 1011.4 0.0
18/03:00am SE 15 20 - - - - - - - 15.9 1011.5 0.0
18/02:30am SE 15 21 - - - - - - - 15.9 1011.6 0.0
18/02:00am SE 14 20 - - - - - - - 16.0 1011.9 0.0
18/01:30am SE 15 19 - - - - - - - 16.1 1012.3 0.0
18/01:00am SE 15 21 - - - - - - - 16.1 1012.6 0.0
18/12:30am SE 17 23 - - - - - - - 16.2 1012.8 0.0
18/12:00am SE 16 24 - - - - - - - 16.2 1013.3 0.0
 
Date/Time
EDT
Wind Sea
Height
m
Swell Vis
km
Cloud Weather Temp
°C
Press
hPa
Rain since
9am
mm
Dir  Spd
kts
Gust
kts
Height
m
Period
s
Dir
17/11:30pm SE 18 25 - - - - - - - 16.3 1013.7 0.0
17/11:00pm SE 17 26 - - - - - - - 16.2 1013.8 0.0
17/10:30pm SE 18 27 - - - - - - - 16.2 1014.0 0.0
17/10:00pm SE 18 26 - - - - - - - 16.3 1013.8 0.0
17/09:30pm SE 19 25 - - - - - - - 16.3 1013.6 0.0
17/09:00pm SE 16 25 - - - - - - - 16.4 1013.3 0.0
17/08:52pm SE 17 27 - - - - - - - 16.5 1013.3 0.0
17/08:30pm SE 17 23 - - - - - - - 16.8 1013.4 0.0
17/08:00pm SE 18 27 - - - - - - - 17.1 1013.3 0.0
17/07:56pm SE 17 27 - - - - - - - 17.2 1013.4 0.0
17/07:30pm SE 18 25 - - - - - - - 17.2 1013.2 0.0
17/07:00pm SE 18 24 - - - - - - - 17.4 1013.0 0.0
17/06:30pm SE 18 23 - - - - - - - 18.0 1012.9 0.0
17/06:00pm SE 17 23 - - - - - - - 18.2 1012.9 0.0
17/05:30pm SSE 19 24 - - - - - - - 17.4 1013.2 0.0
17/05:00pm SSE 17 23 - - - - - - - 18.3 1013.4 0.0
17/04:30pm SSE 16 21 - - - - - - - 18.1 1013.6 0.0
17/04:00pm SSE 15 20 - - - - - - - 18.5 1014.0 0.0
17/03:30pm SSE 15 21 - - - - - - - 17.4 1014.2 0.0
17/03:00pm SSE 15 21 - - - - - - - 17.3 1014.5 0.0
17/02:30pm SSE 16 21 - - - - - - - 16.9 1014.5 0.0
17/02:00pm SSE 16 20 - - - - - - - 17.0 1014.8 0.0
17/01:30pm SSE 16 21 - - - - - - - 16.5 1015.2 0.0
17/01:00pm SSE 17 23 - - - - - - - 15.7 1015.4 0.0
17/12:30pm SSE 16 20 - - - - - - - 16.0 1015.8 0.0
17/12:00pm SSE 16 21 - - - - - - - 15.4 1016.2 0.0
17/11:30am SSE 16 21 - - - - - - - 15.3 1016.3 0.0
17/11:00am SSE 14 20 - - - - - - - 16.5 1016.5 0.0
17/10:30am SSE 14 18 - - - - - - - 15.4 1016.5 0.0
17/10:00am SSE 14 18 - - - - - - - 14.9 1016.6 0.0
17/09:30am SSE 14 19 - - - - - - - 14.7 1016.6 0.0
17/09:00am SSE 15 21 - - - - - - - 14.7 1016.4 0.0
17/08:30am SSE 15 19 - - - - - - - 14.4 1016.0 0.0
17/08:00am SSE 15 21 - - - - - - - 14.2 1015.6 0.0
17/07:30am SSE 15 19 - - - - - - - 13.9 1015.5 0.0
17/07:00am SE 17 23 - - - - - - - 13.7 1015.1 0.0
17/06:30am SSE 16 21 - - - - - - - 13.7 1014.9 0.0
17/06:00am SSE 18 23 - - - - - - - 13.7 1015.0 0.0

Other formats

Comma delimited format used in spreadsheet applications
http://www.bom.gov.au/fwo/IDV60701/IDV60701.94830.axf

JavaScript Object Notation format (JSON) in row-major order
http://www.bom.gov.au/fwo/IDV60701/IDV60701.94830.json

Data quality

Most of these data are generated automatically and are frequently updated. Quality checks on data are not normally performed. It is possible for incorrect values to appear. Refer to information at About Latest Weather Observations and please check the disclaimer before using these data.